sensor_id;sensor_type;location;lat;lon;timestamp;temperature;humidity
53645;DHT22;39547;45.554;12.068;2023-05-07T00:02:17;17.70;71.30
53645;DHT22;39547;45.554;12.068;2023-05-07T00:08:19;17.70;71.30
53645;DHT22;39547;45.554;12.068;2023-05-07T00:14:21;17.60;71.60
53645;DHT22;39547;45.554;12.068;2023-05-07T00:20:23;17.60;72.40
53645;DHT22;39547;45.554;12.068;2023-05-07T00:26:24;17.50;72.30
53645;DHT22;39547;45.554;12.068;2023-05-07T00:32:26;17.50;72.40
53645;DHT22;39547;45.554;12.068;2023-05-07T00:38:28;17.40;72.60
53645;DHT22;39547;45.554;12.068;2023-05-07T00:44:29;17.30;72.70
53645;DHT22;39547;45.554;12.068;2023-05-07T00:50:32;17.30;72.90
53645;DHT22;39547;45.554;12.068;2023-05-07T00:56:34;17.30;72.60
53645;DHT22;39547;45.554;12.068;2023-05-07T01:02:36;17.20;73.10
53645;DHT22;39547;45.554;12.068;2023-05-07T01:08:38;17.20;73.40
53645;DHT22;39547;45.554;12.068;2023-05-07T01:14:41;17.20;73.70
53645;DHT22;39547;45.554;12.068;2023-05-07T01:20:42;17.20;73.80
53645;DHT22;39547;45.554;12.068;2023-05-07T01:26:44;17.10;74.60
53645;DHT22;39547;45.554;12.068;2023-05-07T01:32:58;16.90;74.40
53645;DHT22;39547;45.554;12.068;2023-05-07T01:39:01;16.90;74.40
53645;DHT22;39547;45.554;12.068;2023-05-07T01:45:03;16.90;74.40
53645;DHT22;39547;45.554;12.068;2023-05-07T01:51:05;16.90;74.70
53645;DHT22;39547;45.554;12.068;2023-05-07T01:57:07;16.90;74.80
53645;DHT22;39547;45.554;12.068;2023-05-07T02:03:09;17.00;74.70
53645;DHT22;39547;45.554;12.068;2023-05-07T02:09:21;17.00;75.00
53645;DHT22;39547;45.554;12.068;2023-05-07T02:15:24;16.90;74.90
53645;DHT22;39547;45.554;12.068;2023-05-07T02:21:26;16.80;75.40
53645;DHT22;39547;45.554;12.068;2023-05-07T02:27:28;16.80;75.30
53645;DHT22;39547;45.554;12.068;2023-05-07T02:33:30;16.70;75.20
53645;DHT22;39547;45.554;12.068;2023-05-07T02:39:32;16.70;75.40
53645;DHT22;39547;45.554;12.068;2023-05-07T02:45:34;16.70;75.60
53645;DHT22;39547;45.554;12.068;2023-05-07T02:51:37;16.60;75.80
53645;DHT22;39547;45.554;12.068;2023-05-07T02:57:44;16.50;76.00
53645;DHT22;39547;45.554;12.068;2023-05-07T03:03:46;16.50;76.00
53645;DHT22;39547;45.554;12.068;2023-05-07T03:09:48;16.40;76.50
53645;DHT22;39547;45.554;12.068;2023-05-07T03:15:49;16.30;76.70
53645;DHT22;39547;45.554;12.068;2023-05-07T03:21:51;16.20;76.50
53645;DHT22;39547;45.554;12.068;2023-05-07T03:27:52;16.20;76.70
53645;DHT22;39547;45.554;12.068;2023-05-07T03:33:57;16.30;76.40
53645;DHT22;39547;45.554;12.068;2023-05-07T03:39:59;16.20;76.50
53645;DHT22;39547;45.554;12.068;2023-05-07T03:46:01;16.20;76.80
53645;DHT22;39547;45.554;12.068;2023-05-07T03:52:04;16.30;76.80
53645;DHT22;39547;45.554;12.068;2023-05-07T03:58:06;16.20;76.70
53645;DHT22;39547;45.554;12.068;2023-05-07T04:04:08;16.20;76.80
53645;DHT22;39547;45.554;12.068;2023-05-07T04:10:11;16.30;76.90
53645;DHT22;39547;45.554;12.068;2023-05-07T04:16:16;16.30;77.00
53645;DHT22;39547;45.554;12.068;2023-05-07T04:22:17;16.30;77.20
53645;DHT22;39547;45.554;12.068;2023-05-07T04:28:19;16.30;77.10
53645;DHT22;39547;45.554;12.068;2023-05-07T04:34:20;16.30;77.20
53645;DHT22;39547;45.554;12.068;2023-05-07T04:40:22;16.20;77.30
53645;DHT22;39547;45.554;12.068;2023-05-07T04:46:24;16.20;77.90
53645;DHT22;39547;45.554;12.068;2023-05-07T04:52:27;16.30;77.40
53645;DHT22;39547;45.554;12.068;2023-05-07T04:58:29;16.30;77.30
53645;DHT22;39547;45.554;12.068;2023-05-07T05:04:32;16.30;77.90
53645;DHT22;39547;45.554;12.068;2023-05-07T05:10:34;16.30;77.80
53645;DHT22;39547;45.554;12.068;2023-05-07T05:16:36;16.30;77.80
53645;DHT22;39547;45.554;12.068;2023-05-07T05:22:38;16.40;78.10
53645;DHT22;39547;45.554;12.068;2023-05-07T05:28:40;16.40;78.00
53645;DHT22;39547;45.554;12.068;2023-05-07T05:34:41;16.50;77.80
53645;DHT22;39547;45.554;12.068;2023-05-07T05:40:43;16.60;77.50
53645;DHT22;39547;45.554;12.068;2023-05-07T05:46:44;16.80;77.30
53645;DHT22;39547;45.554;12.068;2023-05-07T05:52:46;16.90;76.90
53645;DHT22;39547;45.554;12.068;2023-05-07T05:58:47;17.00;76.60
53645;DHT22;39547;45.554;12.068;2023-05-07T06:04:49;17.20;76.70
53645;DHT22;39547;45.554;12.068;2023-05-07T06:10:54;17.30;76.60
53645;DHT22;39547;45.554;12.068;2023-05-07T06:16:55;17.50;77.10
53645;DHT22;39547;45.554;12.068;2023-05-07T06:22:57;17.80;76.20
53645;DHT22;39547;45.554;12.068;2023-05-07T06:28:58;18.00;75.50
53645;DHT22;39547;45.554;12.068;2023-05-07T06:35:00;18.20;75.40
53645;DHT22;39547;45.554;12.068;2023-05-07T06:41:02;18.30;75.10
53645;DHT22;39547;45.554;12.068;2023-05-07T06:47:04;18.60;74.90
53645;DHT22;39547;45.554;12.068;2023-05-07T06:53:06;18.70;74.80
53645;DHT22;39547;45.554;12.068;2023-05-07T06:59:08;18.90;74.70
53645;DHT22;39547;45.554;12.068;2023-05-07T07:05:14;19.20;74.70
53645;DHT22;39547;45.554;12.068;2023-05-07T07:11:15;19.20;74.40
53645;DHT22;39547;45.554;12.068;2023-05-07T07:17:17;19.40;74.40
53645;DHT22;39547;45.554;12.068;2023-05-07T07:23:19;19.50;74.30
53645;DHT22;39547;45.554;12.068;2023-05-07T07:29:21;19.70;74.20
53645;DHT22;39547;45.554;12.068;2023-05-07T07:35:23;19.90;74.10
53645;DHT22;39547;45.554;12.068;2023-05-07T07:41:25;20.20;73.20
53645;DHT22;39547;45.554;12.068;2023-05-07T07:47:26;20.50;72.80
53645;DHT22;39547;45.554;12.068;2023-05-07T07:53:28;20.80;71.60
53645;DHT22;39547;45.554;12.068;2023-05-07T07:59:31;21.00;70.80
53645;DHT22;39547;45.554;12.068;2023-05-07T08:05:32;21.20;69.90
53645;DHT22;39547;45.554;12.068;2023-05-07T08:11:35;21.30;68.80
53645;DHT22;39547;45.554;12.068;2023-05-07T08:17:37;21.60;67.90
53645;DHT22;39547;45.554;12.068;2023-05-07T08:23:39;21.80;66.40
53645;DHT22;39547;45.554;12.068;2023-05-07T08:29:41;22.10;66.70
53645;DHT22;39547;45.554;12.068;2023-05-07T08:35:43;22.30;64.90
53645;DHT22;39547;45.554;12.068;2023-05-07T08:41:48;22.40;64.80
53645;DHT22;39547;45.554;12.068;2023-05-07T08:47:58;22.50;65.40
53645;DHT22;39547;45.554;12.068;2023-05-07T08:54:04;22.50;64.60
53645;DHT22;39547;45.554;12.068;2023-05-07T09:00:08;22.80;63.70
53645;DHT22;39547;45.554;12.068;2023-05-07T09:06:12;22.80;62.40
53645;DHT22;39547;45.554;12.068;2023-05-07T09:12:14;22.80;62.40
53645;DHT22;39547;45.554;12.068;2023-05-07T09:18:16;22.90;62.00
53645;DHT22;39547;45.554;12.068;2023-05-07T09:24:19;22.80;60.80
53645;DHT22;39547;45.554;12.068;2023-05-07T09:30:21;22.80;61.80
53645;DHT22;39547;45.554;12.068;2023-05-07T09:36:23;22.80;62.10
53645;DHT22;39547;45.554;12.068;2023-05-07T09:42:25;22.80;62.10
53645;DHT22;39547;45.554;12.068;2023-05-07T09:48:38;22.90;61.80
53645;DHT22;39547;45.554;12.068;2023-05-07T09:54:43;23.10;61.80
53645;DHT22;39547;45.554;12.068;2023-05-07T10:00:47;23.60;61.20
53645;DHT22;39547;45.554;12.068;2023-05-07T10:06:51;24.00;55.50
53645;DHT22;39547;45.554;12.068;2023-05-07T10:12:53;24.20;57.00
53645;DHT22;39547;45.554;12.068;2023-05-07T10:19:04;24.40;55.50
53645;DHT22;39547;45.554;12.068;2023-05-07T10:25:30;24.80;54.50
53645;DHT22;39547;45.554;12.068;2023-05-07T10:31:46;24.90;52.40
53645;DHT22;39547;45.554;12.068;2023-05-07T10:37:49;25.10;53.80
53645;DHT22;39547;45.554;12.068;2023-05-07T10:43:51;25.10;53.80
53645;DHT22;39547;45.554;12.068;2023-05-07T10:56:23;25.40;52.20
53645;DHT22;39547;45.554;12.068;2023-05-07T11:09:08;26.00;51.60
53645;DHT22;39547;45.554;12.068;2023-05-07T11:15:36;26.10;52.10
53645;DHT22;39547;45.554;12.068;2023-05-07T11:21:44;26.10;53.20
53645;DHT22;39547;45.554;12.068;2023-05-07T11:27:53;26.20;53.10
53645;DHT22;39547;45.554;12.068;2023-05-07T11:33:55;26.50;52.40
53645;DHT22;39547;45.554;12.068;2023-05-07T11:40:05;26.90;51.80
53645;DHT22;39547;45.554;12.068;2023-05-07T11:46:11;27.00;51.90
53645;DHT22;39547;45.554;12.068;2023-05-07T11:52:13;26.60;52.10
53645;DHT22;39547;45.554;12.068;2023-05-07T11:58:21;26.50;52.80
53645;DHT22;39547;45.554;12.068;2023-05-07T12:04:23;26.30;52.30
53645;DHT22;39547;45.554;12.068;2023-05-07T12:10:24;26.30;52.40
53645;DHT22;39547;45.554;12.068;2023-05-07T12:16:26;26.00;53.50
53645;DHT22;39547;45.554;12.068;2023-05-07T12:22:28;25.70;52.80
53645;DHT22;39547;45.554;12.068;2023-05-07T12:28:30;25.80;53.20
53645;DHT22;39547;45.554;12.068;2023-05-07T12:34:32;26.10;53.10
53645;DHT22;39547;45.554;12.068;2023-05-07T12:40:45;26.70;53.00
53645;DHT22;39547;45.554;12.068;2023-05-07T12:46:46;27.50;52.30
53645;DHT22;39547;45.554;12.068;2023-05-07T12:52:48;28.40;51.30
53645;DHT22;39547;45.554;12.068;2023-05-07T12:58:49;29.00;48.70
53645;DHT22;39547;45.554;12.068;2023-05-07T13:04:51;29.60;48.70
53645;DHT22;39547;45.554;12.068;2023-05-07T13:10:54;30.20;46.50
53645;DHT22;39547;45.554;12.068;2023-05-07T13:16:55;31.00;44.90
53645;DHT22;39547;45.554;12.068;2023-05-07T13:22:57;31.80;43.10
53645;DHT22;39547;45.554;12.068;2023-05-07T13:28:58;32.30;41.90
53645;DHT22;39547;45.554;12.068;2023-05-07T13:35:00;32.70;40.70
53645;DHT22;39547;45.554;12.068;2023-05-07T13:41:01;33.00;39.50
53645;DHT22;39547;45.554;12.068;2023-05-07T13:47:03;32.50;40.40
53645;DHT22;39547;45.554;12.068;2023-05-07T13:53:04;31.60;40.90
53645;DHT22;39547;45.554;12.068;2023-05-07T13:59:06;31.50;41.50
53645;DHT22;39547;45.554;12.068;2023-05-07T14:05:07;32.30;40.80
53645;DHT22;39547;45.554;12.068;2023-05-07T14:11:10;32.80;39.30
53645;DHT22;39547;45.554;12.068;2023-05-07T14:17:12;32.20;39.40
53645;DHT22;39547;45.554;12.068;2023-05-07T14:23:13;32.30;38.40
53645;DHT22;39547;45.554;12.068;2023-05-07T14:29:16;32.90;37.70
53645;DHT22;39547;45.554;12.068;2023-05-07T14:35:20;33.30;36.50
53645;DHT22;39547;45.554;12.068;2023-05-07T14:41:22;33.90;35.20
53645;DHT22;39547;45.554;12.068;2023-05-07T14:47:23;34.20;33.80
53645;DHT22;39547;45.554;12.068;2023-05-07T14:53:25;34.40;33.60
53645;DHT22;39547;45.554;12.068;2023-05-07T14:59:26;34.50;32.80
53645;DHT22;39547;45.554;12.068;2023-05-07T15:05:28;34.50;32.40
53645;DHT22;39547;45.554;12.068;2023-05-07T15:11:29;34.40;31.10
53645;DHT22;39547;45.554;12.068;2023-05-07T15:17:31;33.80;32.10
53645;DHT22;39547;45.554;12.068;2023-05-07T15:23:32;33.00;32.80
53645;DHT22;39547;45.554;12.068;2023-05-07T15:29:34;31.80;34.30
53645;DHT22;39547;45.554;12.068;2023-05-07T15:35:37;30.40;35.80
53645;DHT22;39547;45.554;12.068;2023-05-07T15:41:38;29.50;37.30
53645;DHT22;39547;45.554;12.068;2023-05-07T15:47:40;28.50;38.10
53645;DHT22;39547;45.554;12.068;2023-05-07T15:53:41;27.70;38.70
53645;DHT22;39547;45.554;12.068;2023-05-07T15:59:43;27.20;40.00
53645;DHT22;39547;45.554;12.068;2023-05-07T16:05:44;26.70;40.80
53645;DHT22;39547;45.554;12.068;2023-05-07T16:11:46;26.40;41.90
53645;DHT22;39547;45.554;12.068;2023-05-07T16:17:48;26.10;42.60
53645;DHT22;39547;45.554;12.068;2023-05-07T16:23:57;25.80;42.60
53645;DHT22;39547;45.554;12.068;2023-05-07T16:29:59;25.60;42.80
53645;DHT22;39547;45.554;12.068;2023-05-07T16:36:01;25.30;42.80
53645;DHT22;39547;45.554;12.068;2023-05-07T16:42:03;25.20;43.30
53645;DHT22;39547;45.554;12.068;2023-05-07T16:48:05;25.00;43.80
53645;DHT22;39547;45.554;12.068;2023-05-07T16:54:08;24.80;43.90
53645;DHT22;39547;45.554;12.068;2023-05-07T17:00:11;24.70;44.20
53645;DHT22;39547;45.554;12.068;2023-05-07T17:06:13;24.50;44.70
53645;DHT22;39547;45.554;12.068;2023-05-07T17:12:15;24.20;45.30
53645;DHT22;39547;45.554;12.068;2023-05-07T17:18:16;23.90;46.10
53645;DHT22;39547;45.554;12.068;2023-05-07T17:24:18;23.70;47.10
53645;DHT22;39547;45.554;12.068;2023-05-07T17:30:19;23.60;47.90
53645;DHT22;39547;45.554;12.068;2023-05-07T17:36:21;23.30;48.60
53645;DHT22;39547;45.554;12.068;2023-05-07T17:42:22;23.20;49.30
53645;DHT22;39547;45.554;12.068;2023-05-07T17:48:24;23.00;49.80
53645;DHT22;39547;45.554;12.068;2023-05-07T17:54:25;22.80;50.00
53645;DHT22;39547;45.554;12.068;2023-05-07T18:00:28;22.70;50.50
53645;DHT22;39547;45.554;12.068;2023-05-07T18:06:29;22.60;51.50
53645;DHT22;39547;45.554;12.068;2023-05-07T18:12:32;22.40;52.50
53645;DHT22;39547;45.554;12.068;2023-05-07T18:18:33;22.40;52.40
53645;DHT22;39547;45.554;12.068;2023-05-07T18:24:35;22.20;53.30
53645;DHT22;39547;45.554;12.068;2023-05-07T18:30:37;22.10;53.70
53645;DHT22;39547;45.554;12.068;2023-05-07T18:36:38;22.00;54.10
53645;DHT22;39547;45.554;12.068;2023-05-07T18:42:40;21.90;54.40
53645;DHT22;39547;45.554;12.068;2023-05-07T18:48:41;21.80;54.70
53645;DHT22;39547;45.554;12.068;2023-05-07T18:54:43;21.80;55.30
53645;DHT22;39547;45.554;12.068;2023-05-07T19:00:46;21.70;56.50
53645;DHT22;39547;45.554;12.068;2023-05-07T19:06:48;21.70;57.20
53645;DHT22;39547;45.554;12.068;2023-05-07T19:12:49;21.60;57.70
53645;DHT22;39547;45.554;12.068;2023-05-07T19:18:55;21.60;58.10
53645;DHT22;39547;45.554;12.068;2023-05-07T19:24:56;21.50;58.90
53645;DHT22;39547;45.554;12.068;2023-05-07T19:30:58;21.40;59.60
53645;DHT22;39547;45.554;12.068;2023-05-07T19:36:59;21.30;60.00
53645;DHT22;39547;45.554;12.068;2023-05-07T19:43:01;21.30;60.40
53645;DHT22;39547;45.554;12.068;2023-05-07T19:49:02;21.20;60.60
53645;DHT22;39547;45.554;12.068;2023-05-07T19:55:04;21.10;60.20
53645;DHT22;39547;45.554;12.068;2023-05-07T20:01:06;21.00;60.00
53645;DHT22;39547;45.554;12.068;2023-05-07T20:07:07;20.80;60.00
53645;DHT22;39547;45.554;12.068;2023-05-07T20:13:10;20.80;60.30
53645;DHT22;39547;45.554;12.068;2023-05-07T20:19:11;20.70;60.60
53645;DHT22;39547;45.554;12.068;2023-05-07T20:25:12;20.60;60.80
53645;DHT22;39547;45.554;12.068;2023-05-07T20:31:15;20.60;61.20
53645;DHT22;39547;45.554;12.068;2023-05-07T20:37:16;20.50;61.90
53645;DHT22;39547;45.554;12.068;2023-05-07T20:43:18;20.40;62.40
53645;DHT22;39547;45.554;12.068;2023-05-07T20:49:19;20.30;62.60
53645;DHT22;39547;45.554;12.068;2023-05-07T20:55:23;20.30;63.00
53645;DHT22;39547;45.554;12.068;2023-05-07T21:01:24;20.30;63.20
53645;DHT22;39547;45.554;12.068;2023-05-07T21:07:26;20.20;63.20
53645;DHT22;39547;45.554;12.068;2023-05-07T21:13:27;20.10;63.60
53645;DHT22;39547;45.554;12.068;2023-05-07T21:19:28;20.10;64.00
53645;DHT22;39547;45.554;12.068;2023-05-07T21:25:30;20.00;64.20
53645;DHT22;39547;45.554;12.068;2023-05-07T21:31:31;19.90;64.10
53645;DHT22;39547;45.554;12.068;2023-05-07T21:37:33;19.80;64.30
53645;DHT22;39547;45.554;12.068;2023-05-07T21:43:34;19.80;64.60
53645;DHT22;39547;45.554;12.068;2023-05-07T21:49:35;19.70;65.00
53645;DHT22;39547;45.554;12.068;2023-05-07T21:55:37;19.60;65.10
53645;DHT22;39547;45.554;12.068;2023-05-07T22:01:38;19.50;65.30
53645;DHT22;39547;45.554;12.068;2023-05-07T22:07:40;19.50;65.30
53645;DHT22;39547;45.554;12.068;2023-05-07T22:13:41;19.50;65.60
53645;DHT22;39547;45.554;12.068;2023-05-07T22:19:43;19.40;65.80
53645;DHT22;39547;45.554;12.068;2023-05-07T22:25:44;19.30;66.30
53645;DHT22;39547;45.554;12.068;2023-05-07T22:31:46;19.30;66.50
53645;DHT22;39547;45.554;12.068;2023-05-07T22:37:47;19.30;66.40
53645;DHT22;39547;45.554;12.068;2023-05-07T22:43:49;19.30;66.40
53645;DHT22;39547;45.554;12.068;2023-05-07T22:49:50;19.30;66.50
53645;DHT22;39547;45.554;12.068;2023-05-07T22:55:52;19.30;66.40
53645;DHT22;39547;45.554;12.068;2023-05-07T23:01:53;19.30;66.70
53645;DHT22;39547;45.554;12.068;2023-05-07T23:07:55;19.30;66.80
53645;DHT22;39547;45.554;12.068;2023-05-07T23:13:57;19.30;66.90
53645;DHT22;39547;45.554;12.068;2023-05-07T23:19:58;19.20;67.10
53645;DHT22;39547;45.554;12.068;2023-05-07T23:25:59;19.20;67.30
53645;DHT22;39547;45.554;12.068;2023-05-07T23:32:01;19.30;67.30
53645;DHT22;39547;45.554;12.068;2023-05-07T23:38:03;19.30;67.10
53645;DHT22;39547;45.554;12.068;2023-05-07T23:44:04;19.40;67.20
53645;DHT22;39547;45.554;12.068;2023-05-07T23:50:06;19.40;67.10
53645;DHT22;39547;45.554;12.068;2023-05-07T23:56:07;19.50;67.10
